»·PEaware :: N232WP KBUR-KSMX

N232WP :: KBUR-KSMX

FLIGHT INFORMATION

Flight Status: Arrived
Operator: Privately registered:
United States
More flights under this callsign
Pilot: Walter P. (10403)
Aircraft: Unknown
(EPIC)
More flights by this aircraft type
Origin: KBUR Bob Hope-Burbank
United States
Destination: KSMX Santa Maria Pub/Capt Hancock
United States
More flights between these airports :: More routes between these airports
Route: VNY3 FIM V597 RZS T257 MQO
File this flight plan on PilotEdge
Remarks:
Altitude:
(Current/Filed)
14,000ft
Speed:
(Current/Filed)
300kts
Departed: 27-Feb-19 08:05 PM
Arrived: 27-Feb-19 08:46 PM
Distance/Time
Traveled:
111nm/0:41
Distance/Time
To Go:
Arrived

Flight Plot

Page will automatically refresh every two minutes.

Flight plan parsing failed; only flown route is shown


Map Options




Map Legend


Flown Route
Filed Route
Departure Airport
Arrival Airport
Navaid (VOR, NDB)
Fix

Horizontal Profiles

Position Reports

Time Latitude Longitude Heading Altitude Ground
Speed
27-Feb-19 19:35 34.200180 -118.364788 89 780ft 0kts
27-Feb-19 19:36 34.200180 -118.364788 89 780ft 0kts
27-Feb-19 19:37 34.200180 -118.364788 89 780ft 0kts
27-Feb-19 19:38 34.200180 -118.364788 89 780ft 0kts
27-Feb-19 19:39 34.200180 -118.364788 89 780ft 0kts
27-Feb-19 19:40 34.200180 -118.364788 89 780ft 0kts
27-Feb-19 19:41 34.200180 -118.364788 89 780ft 0kts
27-Feb-19 19:42 34.200180 -118.364788 89 780ft 0kts
27-Feb-19 19:43 34.200180 -118.364788 89 780ft 0kts
27-Feb-19 19:44 34.200180 -118.364788 89 780ft 0kts
27-Feb-19 19:45 34.200180 -118.364788 89 780ft 0kts
27-Feb-19 19:46 34.200180 -118.364788 89 780ft 0kts
27-Feb-19 19:47 34.200180 -118.364788 89 780ft 0kts
27-Feb-19 19:48 34.200180 -118.364788 89 780ft 0kts
27-Feb-19 19:49 34.200180 -118.364788 89 780ft 0kts
27-Feb-19 19:50 34.200180 -118.364788 89 780ft 0kts
27-Feb-19 19:51 34.200180 -118.364788 89 780ft 0kts
27-Feb-19 19:52 34.200180 -118.364788 89 780ft 0kts
27-Feb-19 19:53 34.200180 -118.364788 89 780ft 0kts
27-Feb-19 19:54 34.200180 -118.364788 89 780ft 0kts
27-Feb-19 19:55 34.200180 -118.364788 89 780ft 0kts
27-Feb-19 19:56 34.200180 -118.364788 89 780ft 0kts
27-Feb-19 19:57 34.200180 -118.364788 89 780ft 0kts
27-Feb-19 19:58 34.200180 -118.364788 89 780ft 0kts
27-Feb-19 19:59 34.200181 -118.364742 89 780ft 1kts
27-Feb-19 20:00 34.199428 -118.364531 180 780ft 0kts
27-Feb-19 20:01 34.199118 -118.367975 270 780ft 17kts
27-Feb-19 20:02 34.198698 -118.368973 183 780ft 0kts
27-Feb-19 20:03 34.198659 -118.368975 181 780ft 1kts
27-Feb-19 20:04 34.197835 -118.358117 91 826ft 128kts
27-Feb-19 20:05 34.180758 -118.320801 198 2273ft 157kts
27-Feb-19 20:06 34.147400 -118.356427 225 3878ft 176kts
27-Feb-19 20:07 34.115576 -118.402615 276 5122ft 174kts
27-Feb-19 20:08 34.142271 -118.457750 299 6977ft 207kts
27-Feb-19 20:09 34.173277 -118.518730 299 8783ft 216kts
27-Feb-19 20:10 34.204380 -118.579936 297 10673ft 215kts
27-Feb-19 20:11 34.235196 -118.640757 294 13483ft 215kts
27-Feb-19 20:12 34.270205 -118.709923 295 14005ft 271kts
27-Feb-19 20:13 34.310471 -118.789525 295 14001ft 280kts
27-Feb-19 20:14 34.351285 -118.870479 295 13993ft 283kts
27-Feb-19 20:15 34.370563 -118.960411 278 13980ft 275kts
27-Feb-19 20:16 34.386399 -119.050937 278 13964ft 275kts
27-Feb-19 20:17 34.402159 -119.141573 278 13961ft 275kts
27-Feb-19 20:18 34.417858 -119.232317 278 13961ft 275kts
27-Feb-19 20:19 34.433477 -119.322992 277 13960ft 275kts
27-Feb-19 20:20 34.449105 -119.414202 278 13959ft 276kts
27-Feb-19 20:21 34.464622 -119.505148 278 13959ft 276kts
27-Feb-19 20:22 34.480058 -119.596046 278 13958ft 276kts
27-Feb-19 20:23 34.495458 -119.687178 277 13966ft 275kts
27-Feb-19 20:24 34.516072 -119.776382 301 13976ft 287kts
27-Feb-19 20:25 34.569229 -119.849390 305 13964ft 290kts
27-Feb-19 20:26 34.624018 -119.921528 306 13964ft 291kts
27-Feb-19 20:27 34.679002 -119.994053 306 13963ft 291kts
27-Feb-19 20:28 34.733682 -120.066338 305 14000ft 291kts
27-Feb-19 20:29 34.787429 -120.137524 306 12626ft 277kts
27-Feb-19 20:30 34.838657 -120.205556 306 10824ft 271kts
27-Feb-19 20:31 34.889318 -120.272934 307 9025ft 270kts
27-Feb-19 20:32 34.939663 -120.340017 308 7224ft 265kts
27-Feb-19 20:33 34.986120 -120.401878 308 5402ft 232kts
27-Feb-19 20:34 35.027664 -120.459894 308 3602ft 226kts
27-Feb-19 20:35 35.064707 -120.514831 308 2999ft 194kts
27-Feb-19 20:36 35.089259 -120.570074 266 2917ft 182kts
27-Feb-19 20:37 35.083635 -120.625299 200 2714ft 164kts
27-Feb-19 20:38 35.042608 -120.614672 162 2699ft 148kts
27-Feb-19 20:39 35.004807 -120.600869 159 2701ft 137kts
27-Feb-19 20:40 34.985909 -120.558012 133 2283ft 130kts
27-Feb-19 20:41 34.962884 -120.529259 141 1862ft 115kts
27-Feb-19 20:42 34.941691 -120.503747 137 1320ft 98kts
27-Feb-19 20:43 34.923200 -120.481916 135 738ft 86kts
27-Feb-19 20:44 34.907458 -120.463288 134 287ft 68kts
27-Feb-19 20:45 34.899254 -120.453483 135 264ft 20kts
27-Feb-19 20:46 34.898724 -120.449172 125 264ft 14kts
27-Feb-19 20:47 34.897112 -120.446365 227 264ft 0kts
27-Feb-19 20:48 34.897112 -120.446365 227 264ft 0kts
27-Feb-19 20:49 34.897112 -120.446365 227 264ft 0kts
27-Feb-19 20:50 34.897112 -120.446365 227 264ft 0kts
27-Feb-19 20:51 34.897112 -120.446365 227 264ft 0kts

Navigation Log

Ident Type
Flight plan parsing failed, navigation log unavailable